Aeroporto :
LOGIN :

Iscrizione | Disclaimer

   EN    FR    IT 

 










Sommario :    VFR   VFR Marginale   IFR   IFR Intensivo   IFR Molto Intensivo
Visibilità : 
Base nubi : 
>= 8 km
>= 3000ft
5 / 8 km
1000 / 3000 ft
1500m / 5 km
500 / 1000 ft
800 / 1500m
200 / 500 ft
< 800m
< 200 ft
Simboli :   Temporali  Nebbia  Neve Forte  Precipitazioni Forti  Vento > 20 kt
SIGMETs :   Varie  Temporali  Ghiacco  Turbolenza  Onda orograficha  Ceneri Vulcaniche







- Altitudine del aeroporto : 1187 ft


LIBV - Gioia del Colle Bari

ULTIMO METAR :
  • 250455Z 17004KT CAVOK 08/04 Q1015 RMK SKC VIS MIN 9999 WIND THR32 18005KT WIND THR14 18002KT BLU

METARs OBSOLETI :
  • 250355Z 18002KT CAVOK 07/05 Q1016
  • 250255Z 18003KT CAVOK 07/05 Q1016 RMK SKC VIS MIN 9999 WIND THR32 20004KT WIND THR14 17002KT BLU

TAF TAF LIBV
Valido dal 25 a 03 ore il 25 a 12 ore UTC


250200Z 2503/2512 23005KT CAVOK
PROB30
TEMPO 2503/2506 5000 BR
Nessun NOTAM noto per questo aeroporto.



MetMap, La meteo Aeronautica in un colpo d'occhio ! - Copyright ORBIFLY Dicembre 2007 - Disclaimer

ORBIFLY MET'MAP TEAM :

Programmazione e sviluppo : Alexandra Zaïnal
Concezione e sviluppo : Baudouin d'Aumeries
Co-Programmazione e sviluppo : Marc-Olivier Méhu
Supporto tecnico e logistico : Manuel Goepfert
Aiuto per la traduzione : Arnaldo La Scala

Contatto : metmap@orbifly.com




FONTI E CREDITI :

   NOAA